Time;durP1;ratioP1;P1;durP2;ratioP2;P2;SDS_P1;SDS_P2;PMS_P1;PMS_P2;Temp;Humidity;BMP_temperature;BMP_pressure;BME280_temperature;BME280_humidity;BME280_pressure;Samples;Min_cycle;Max_cycle;Signal;HPM_P1;HPM_P2
2021/01/07 00:00:41;;;;;;;36.00;14.90;;;;;;;1.77;100.00;100937.91;5010234;28;20040;-73
2021/01/07 00:03:06;;;;;;;34.80;14.88;;;;;;;1.73;100.00;100936.25;5009850;28;20034;-73
2021/01/07 00:05:32;;;;;;;33.30;13.55;;;;;;;1.74;100.00;100936.19;5009371;28;20450;-73
2021/01/07 00:07:57;;;;;;;34.13;14.35;;;;;;;1.67;100.00;100931.09;5004809;28;20117;-71
2021/01/07 00:10:23;;;;;;;32.28;13.60;;;;;;;1.62;100.00;100928.53;5013962;28;20137;-73
2021/01/07 00:12:48;;;;;;;33.78;14.23;;;;;;;1.62;100.00;100926.78;5010646;28;20026;-72
2021/01/07 00:15:14;;;;;;;32.67;12.93;;;;;;;1.66;100.00;100929.34;5010452;28;20501;-72
2021/01/07 00:17:39;;;;;;;31.13;13.05;;;;;;;1.70;100.00;100925.72;5007829;28;20164;-73
2021/01/07 00:20:08;;;;;;;30.77;14.52;;;;;;;1.76;100.00;100925.56;5016907;28;20040;-72
2021/01/07 00:22:33;;;;;;;30.60;13.30;;;;;;;1.74;100.00;100925.59;5007738;28;20053;-73
2021/01/07 00:24:59;;;;;;;31.40;13.10;;;;;;;1.74;100.00;100928.25;5010908;28;20062;-73
2021/01/07 00:27:24;;;;;;;32.28;14.23;;;;;;;1.65;100.00;100919.69;5004915;28;20669;-72
2021/01/07 00:29:50;;;;;;;32.65;13.23;;;;;;;1.67;100.00;100920.53;4990300;28;20488;-73
2021/01/07 00:32:15;;;;;;;33.75;14.18;;;;;;;1.68;100.00;100923.09;5007429;28;20037;-72
2021/01/07 00:34:41;;;;;;;33.42;14.45;;;;;;;1.61;100.00;100914.44;5008950;28;20448;-71
2021/01/07 00:37:06;;;;;;;31.63;13.70;;;;;;;1.71;100.00;100911.59;4993034;28;20125;-73
2021/01/07 00:39:32;;;;;;;32.80;14.15;;;;;;;1.67;100.00;100915.22;5010281;28;20514;-72
2021/01/07 00:41:59;;;;;;;34.50;15.55;;;;;;;1.66;100.00;100909.06;5008255;28;20026;-72
2021/01/07 00:44:26;;;;;;;32.70;14.32;;;;;;;1.70;100.00;100915.13;4994807;28;20037;-72
2021/01/07 00:46:52;;;;;;;32.00;14.90;;;;;;;1.60;100.00;100904.75;5007592;28;20398;-72
2021/01/07 00:49:18;;;;;;;38.47;14.73;;;;;;;1.62;100.00;100910.91;5008708;28;20120;-73
2021/01/07 00:51:44;;;;;;;32.30;13.60;;;;;;;1.59;100.00;100912.75;5008792;28;20503;-73
2021/01/07 00:54:10;;;;;;;33.28;15.57;;;;;;;1.58;100.00;100908.38;5008117;28;20053;-72
2021/01/07 00:56:39;;;;;;;39.17;14.35;;;;;;;1.55;100.00;100909.31;5007178;28;20060;-73
2021/01/07 00:59:07;;;;;;;37.63;15.88;;;;;;;1.55;100.00;100909.31;5002315;28;20030;-73
2021/01/07 01:01:41;;;;;;;39.10;15.75;;;;;;;1.53;100.00;100902.31;5021805;28;20387;-73
2021/01/07 01:04:06;;;;;;;37.92;15.73;;;;;;;1.59;100.00;100903.06;5009973;28;20052;-72
2021/01/07 01:06:32;;;;;;;35.28;16.65;;;;;;;1.59;100.00;100904.81;5007642;28;20056;-73
2021/01/07 01:08:58;;;;;;;38.85;16.35;;;;;;;1.52;100.00;100896.16;5008280;28;20049;-73
2021/01/07 01:11:23;;;;;;;39.55;16.35;;;;;;;1.47;100.00;100895.41;5007534;28;20050;-73
2021/01/07 01:13:49;;;;;;;37.08;17.00;;;;;;;1.48;100.00;100894.47;5007803;28;20036;-73
2021/01/07 01:16:14;;;;;;;43.17;18.45;;;;;;;1.58;100.00;100898.66;5006891;28;20042;-73
2021/01/07 01:18:40;;;;;;;35.83;17.20;;;;;;;1.57;100.00;100894.28;5005121;28;20109;-73
2021/01/07 01:21:05;;;;;;;42.28;18.35;;;;;;;1.51;100.00;100893.56;5008361;28;20103;-73
2021/01/07 01:23:30;;;;;;;48.92;18.80;;;;;;;1.47;100.00;100894.53;5006138;28;20038;-73
2021/01/07 01:25:56;;;;;;;45.00;18.23;;;;;;;1.42;100.00;100902.56;5006684;28;20506;-73
2021/01/07 01:28:21;;;;;;;43.88;18.98;;;;;;;1.38;100.00;100898.25;5007257;28;20046;-72
2021/01/07 01:30:47;;;;;;;51.85;19.95;;;;;;;1.39;100.00;100900.00;5008690;28;20045;-73
2021/01/07 01:33:12;;;;;;;45.40;20.60;;;;;;;1.34;100.00;100891.31;5008427;28;20414;-73
2021/01/07 01:35:37;;;;;;;49.70;20.95;;;;;;;1.40;100.00;100895.59;5006754;28;20033;-72
2021/01/07 01:38:03;;;;;;;46.88;19.85;;;;;;;1.36;100.00;100900.06;5008414;28;20044;-73
2021/01/07 01:40:28;;;;;;;46.95;20.85;;;;;;;1.35;100.00;100892.19;5008075;28;20045;-73
2021/01/07 01:42:54;;;;;;;46.58;20.55;;;;;;;1.37;100.00;100901.81;5007722;28;20108;-72
2021/01/07 01:45:19;;;;;;;52.95;21.35;;;;;;;1.35;100.00;100894.84;4994235;28;20034;-73
2021/01/07 01:47:44;;;;;;;48.63;21.10;;;;;;;1.50;100.00;100908.56;4986636;28;20040;-73
2021/01/07 01:50:10;;;;;;;46.72;20.23;;;;;;;1.40;100.00;100907.03;5005755;28;20041;-73
2021/01/07 01:52:36;;;;;;;48.35;20.15;;;;;;;1.47;100.00;100900.72;5008046;28;20034;-73
2021/01/07 01:55:03;;;;;;;48.33;20.52;;;;;;;1.43;100.00;100895.50;5007669;28;21464;-72
2021/01/07 01:57:31;;;;;;;46.20;19.90;;;;;;;1.41;100.00;100895.56;5007126;28;20053;-72
2021/01/07 01:59:57;;;;;;;53.85;20.25;;;;;;;1.43;100.00;100896.38;5008284;28;20490;-72
2021/01/07 02:02:22;;;;;;;45.13;19.45;;;;;;;1.50;100.00;100897.97;5005619;28;20060;-73
2021/01/07 02:04:48;;;;;;;52.80;20.50;;;;;;;1.60;100.00;100894.19;5006376;28;20506;-72
2021/01/07 02:07:19;;;;;;;50.03;21.80;;;;;;;1.51;100.00;100891.78;5022351;28;20468;-73
2021/01/07 02:09:45;;;;;;;46.88;19.48;;;;;;;1.62;100.00;100891.50;5006550;28;20482;-73
2021/01/07 02:12:14;;;;;;;42.45;19.65;;;;;;;1.60;100.00;100898.63;5022813;28;20088;-73
2021/01/07 02:14:43;;;;;;;44.13;19.58;;;;;;;1.53;100.00;100897.91;5007729;28;20034;-73
2021/01/07 02:17:10;;;;;;;51.28;20.75;;;;;;;1.60;100.00;100898.63;5006288;28;20073;-73
2021/01/07 02:19:35;;;;;;;48.60;18.92;;;;;;;1.51;100.00;100898.84;5008406;28;20029;-73
2021/01/07 02:22:01;;;;;;;53.13;20.67;;;;;;;1.51;100.00;100902.34;5006621;28;20170;-73
2021/01/07 02:24:31;;;;;;;45.97;19.63;;;;;;;1.53;100.00;100897.03;5007690;28;20168;-73
2021/01/07 02:27:01;;;;;;;48.50;19.98;;;;;;;1.58;100.00;100901.31;5007089;28;20044;-73
2021/01/07 02:29:28;;;;;;;56.25;21.90;;;;;;;1.69;100.00;100898.38;5006259;28;20037;-72
2021/01/07 02:31:53;;;;;;;45.13;18.50;;;;;;;1.66;100.00;100898.47;5007021;28;20038;-73
2021/01/07 02:34:18;;;;;;;47.38;19.58;;;;;;;1.61;100.00;100895.91;5006974;28;20089;-73
2021/01/07 02:36:44;;;;;;;49.58;21.38;;;;;;;1.60;100.00;100899.47;5006104;28;21634;-72
2021/01/07 02:39:09;;;;;;;47.00;20.20;;;;;;;1.63;100.00;100888.81;4986074;28;20701;-73
2021/01/07 02:41:35;;;;;;;45.95;19.52;;;;;;;1.73;100.00;100893.91;5006412;28;20044;-73
2021/01/07 02:44:00;;;;;;;45.78;20.10;;;;;;;1.76;100.00;100894.69;5011045;28;20032;-72
2021/01/07 02:46:26;;;;;;;47.17;19.48;;;;;;;1.79;100.00;100893.75;5006501;28;20500;-74
2021/01/07 02:48:52;;;;;;;46.10;20.02;;;;;;;1.72;100.00;100887.75;5007279;28;20085;-73
2021/01/07 02:51:17;;;;;;;47.33;20.60;;;;;;;1.86;100.00;100890.00;5005981;28;20026;-73
2021/01/07 02:53:42;;;;;;;49.42;19.25;;;;;;;1.73;100.00;100888.59;5004988;28;20486;-73
2021/01/07 02:56:08;;;;;;;53.58;22.13;;;;;;;1.68;100.00;100886.06;5007276;28;20042;-72
2021/01/07 02:58:33;;;;;;;53.20;21.17;;;;;;;1.77;100.00;100884.97;5007001;28;20078;-71
2021/01/07 03:00:58;;;;;;;49.83;21.75;;;;;;;1.81;100.00;100883.97;5008166;28;20030;-73
2021/01/07 03:03:24;;;;;;;58.08;22.30;;;;;;;1.79;100.00;100877.88;5006346;28;20038;-73
2021/01/07 03:05:49;;;;;;;50.25;20.70;;;;;;;1.78;100.00;100882.28;5005929;28;20095;-72
2021/01/07 03:08:15;;;;;;;54.13;23.23;;;;;;;1.90;100.00;100870.50;5007182;28;20042;-73
2021/01/07 03:10:40;;;;;;;50.85;22.60;;;;;;;1.79;100.00;100872.56;5007371;28;20161;-73
2021/01/07 03:13:05;;;;;;;50.72;23.02;;;;;;;1.82;100.00;100867.19;4992832;28;20574;-73
2021/01/07 03:15:31;;;;;;;53.70;23.38;;;;;;;1.80;100.00;100869.00;5007384;28;20032;-73
2021/01/07 03:17:56;;;;;;;50.03;23.20;;;;;;;1.77;100.00;100863.78;5007242;28;20490;-73
2021/01/07 03:20:22;;;;;;;48.97;21.52;;;;;;;1.91;100.00;100866.97;5002532;28;20038;-73
2021/01/07 03:22:47;;;;;;;59.80;24.52;;;;;;;1.88;100.00;100861.72;5003305;28;20033;-73
2021/01/07 03:25:13;;;;;;;54.00;24.75;;;;;;;1.98;100.00;100864.09;4988963;28;20081;-73
2021/01/07 03:27:38;;;;;;;55.40;24.48;;;;;;;1.81;100.00;100860.16;5007559;28;20052;-72
2021/01/07 03:30:08;;;;;;;60.42;24.10;;;;;;;1.81;100.00;100854.84;5003095;28;20041;-73
2021/01/07 03:32:34;;;;;;;59.65;24.05;;;;;;;1.85;100.00;100860.03;5006742;28;20120;-73
2021/01/07 03:35:00;;;;;;;55.92;23.63;;;;;;;1.92;100.00;100855.44;5006908;28;20037;-74
2021/01/07 03:37:27;;;;;;;58.45;23.92;;;;;;;1.90;100.00;100844.91;5004875;28;20060;-71
2021/01/07 03:39:52;;;;;;;59.40;25.80;;;;;;;1.90;100.00;100844.91;5004962;28;20116;-73
2021/01/07 03:42:17;;;;;;;60.28;25.52;;;;;;;1.95;100.00;100848.31;5006475;28;20041;-73
2021/01/07 03:44:43;;;;;;;54.83;24.80;;;;;;;1.97;100.00;100843.84;5014498;28;20109;-72
2021/01/07 03:47:08;;;;;;;54.35;23.60;;;;;;;1.84;100.00;100842.44;5010011;28;20637;-74
2021/01/07 03:49:34;;;;;;;54.67;24.95;;;;;;;1.84;100.00;100838.91;5005863;28;20021;-73
2021/01/07 03:51:59;;;;;;;62.65;25.35;;;;;;;1.84;100.00;100831.84;5010428;28;20115;-73
2021/01/07 03:54:25;;;;;;;63.42;25.02;;;;;;;1.83;100.00;100834.53;5009833;28;20406;-74
2021/01/07 03:56:50;;;;;;;60.38;25.30;;;;;;;1.95;100.00;100842.13;5008910;28;20430;-74
2021/01/07 03:59:16;;;;;;;65.95;26.15;;;;;;;1.90;100.00;100838.75;5008214;28;20129;-72
2021/01/07 04:01:41;;;;;;;62.13;26.52;;;;;;;1.86;100.00;100834.44;5008174;28;20030;-74
2021/01/07 04:04:06;;;;;;;69.22;30.48;;;;;;;1.86;100.00;100837.94;5010985;28;20034;-73
2021/01/07 04:06:32;;;;;;;69.07;28.70;;;;;;;1.96;100.00;100838.59;5004926;28;20046;-72
2021/01/07 04:08:57;;;;;;;77.80;33.25;;;;;;;1.92;100.00;100831.63;5008911;28;20030;-74
2021/01/07 04:11:22;;;;;;;155.90;52.03;;;;;;;1.92;100.00;100840.44;5008416;28;20101;-73
2021/01/07 04:13:48;;;;;;;107.03;39.83;;;;;;;1.87;100.00;100825.59;5011253;28;20046;-73
2021/01/07 04:16:14;;;;;;;76.07;30.80;;;;;;;1.88;100.00;100829.97;5004332;28;20042;-73
2021/01/07 04:18:39;;;;;;;65.95;28.90;;;;;;;1.95;100.00;100829.78;5007668;28;20042;-73
2021/01/07 04:21:05;;;;;;;73.88;31.65;;;;;;;1.92;100.00;100832.47;5009356;28;20046;-73
2021/01/07 04:23:30;;;;;;;70.10;30.50;;;;;;;1.95;100.00;100837.72;5006843;28;20034;-74
2021/01/07 04:25:56;;;;;;;81.82;34.00;;;;;;;1.96;100.00;100828.00;5007141;28;20672;-73
2021/01/07 04:28:21;;;;;;;140.38;48.75;;;;;;;1.98;100.00;100829.66;5008551;28;20045;-72
2021/01/07 04:30:46;;;;;;;253.80;65.15;;;;;;;1.97;100.00;100829.75;5009689;28;20053;-72
2021/01/07 04:33:12;;;;;;;278.17;72.75;;;;;;;1.97;100.00;100819.16;5001426;28;20065;-74
2021/01/07 04:35:38;;;;;;;219.20;65.63;;;;;;;2.07;100.00;100825.03;5009651;28;20453;-73
2021/01/07 04:38:03;;;;;;;127.60;43.88;;;;;;;2.08;100.00;100814.41;5008403;28;20471;-72
2021/01/07 04:40:29;;;;;;;162.55;50.40;;;;;;;2.03;100.00;100825.16;5001709;28;20490;-73
2021/01/07 04:42:54;;;;;;;118.28;43.17;;;;;;;1.96;100.00;100822.69;5009761;28;20034;-73
2021/01/07 04:45:20;;;;;;;156.73;50.22;;;;;;;2.01;100.00;100815.50;5010418;28;20038;-73
2021/01/07 04:47:48;;;;;;;181.23;53.22;;;;;;;2.08;100.00;100816.19;5008271;28;20029;-73
2021/01/07 04:50:13;;;;;;;253.55;67.57;;;;;;;2.05;100.00;100811.84;5011332;28;20046;-73
2021/01/07 04:52:39;;;;;;;172.68;48.92;;;;;;;2.16;100.00;100809.75;5009397;28;20414;-73
2021/01/07 04:55:05;;;;;;;350.02;84.82;;;;;;;2.08;100.00;100816.19;5007415;28;20041;-73
2021/01/07 04:57:31;;;;;;;221.32;60.97;;;;;;;2.01;100.00;100816.38;5003496;28;20053;-73
2021/01/07 04:59:56;;;;;;;144.70;52.83;;;;;;;1.98;100.00;100799.69;4988335;28;20076;-73
2021/01/07 05:02:22;;;;;;;198.32;74.72;;;;;;;2.08;100.00;100810.91;5004945;28;20048;-73
2021/01/07 05:04:51;;;;;;;198.60;72.03;;;;;;;2.08;100.00;100800.31;5008328;28;20132;-73
2021/01/07 05:07:21;;;;;;;185.07;67.15;;;;;;;2.06;100.00;100810.94;5005562;28;20096;-73
2021/01/07 05:09:48;;;;;;;154.95;58.72;;;;;;;2.07;100.00;100812.69;5008733;28;20029;-71
2021/01/07 05:12:14;;;;;;;126.75;51.88;;;;;;;2.18;100.00;100807.06;5008662;28;20037;-73
2021/01/07 05:14:44;;;;;;;92.15;38.65;;;;;;;2.18;100.00;100800.00;5009617;28;20040;-73
2021/01/07 05:17:14;;;;;;;115.40;49.63;;;;;;;2.07;100.00;100798.56;5007286;28;20030;-73
2021/01/07 05:19:40;;;;;;;92.30;38.42;;;;;;;2.10;100.00;100796.69;5005963;28;20030;-73
2021/01/07 05:22:06;;;;;;;116.22;49.22;;;;;;;2.07;100.00;100791.50;5006061;28;20026;-73
2021/01/07 05:24:32;;;;;;;113.72;49.88;;;;;;;2.10;100.00;100799.34;5007661;28;20041;-74
2021/01/07 05:27:05;;;;;;;87.47;38.30;;;;;;;2.15;100.00;100797.44;5006405;28;20048;-74
2021/01/07 05:29:31;;;;;;;85.18;34.72;;;;;;;2.15;100.00;100793.94;5004262;28;20601;-71
2021/01/07 05:31:56;;;;;;;72.55;31.95;;;;;;;2.19;100.00;100787.63;5006554;28;20062;-74
2021/01/07 05:34:21;;;;;;;76.55;30.88;;;;;;;2.16;100.00;100793.03;5023040;28;20034;-72
2021/01/07 05:36:47;;;;;;;76.13;31.23;;;;;;;2.18;100.00;100786.75;5005371;28;20045;-73
2021/01/07 05:39:12;;;;;;;74.95;31.35;;;;;;;2.03;100.00;100789.84;5006351;28;20287;-74
2021/01/07 05:41:38;;;;;;;76.25;32.45;;;;;;;2.05;100.00;100785.38;5006878;28;20557;-72
2021/01/07 05:44:06;;;;;;;69.63;30.70;;;;;;;2.07;100.00;100783.56;5005851;28;20061;-73
2021/01/07 05:46:34;;;;;;;74.55;31.65;;;;;;;1.98;100.00;100781.16;5007930;28;20608;-72
2021/01/07 05:49:00;;;;;;;76.65;31.77;;;;;;;2.01;100.00;100783.72;5007651;28;20117;-74
2021/01/07 05:51:29;;;;;;;74.82;32.30;;;;;;;2.02;100.00;100782.81;5002274;28;20040;-72
2021/01/07 05:53:56;;;;;;;70.63;29.65;;;;;;;2.10;100.00;100786.09;5009124;28;20116;-74
2021/01/07 05:56:23;;;;;;;80.60;30.77;;;;;;;2.13;100.00;100780.72;5006356;28;20077;-73
2021/01/07 05:58:50;;;;;;;79.50;29.20;;;;;;;2.22;100.00;100775.16;5008638;28;20053;-70
2021/01/07 06:01:16;;;;;;;76.95;31.80;;;;;;;2.13;100.00;100786.03;5005393;28;20038;-73
2021/01/07 06:03:50;;;;;;;77.65;30.55;;;;;;;2.11;100.00;100790.47;5008931;28;20038;-74
2021/01/07 06:06:20;;;;;;;72.78;29.27;;;;;;;2.18;100.00;100781.47;5003715;28;20042;-73
2021/01/07 06:08:55;;;;;;;71.32;27.80;;;;;;;2.09;100.00;100787.03;5006995;28;20083;-73
2021/01/07 06:11:24;;;;;;;73.13;29.80;;;;;;;2.00;100.00;100787.28;5004842;28;20033;-73
2021/01/07 06:13:53;;;;;;;68.82;27.70;;;;;;;2.11;100.00;100779.91;5008344;28;20034;-71
2021/01/07 06:16:22;;;;;;;74.82;28.02;;;;;;;2.05;100.00;100777.44;5006899;28;20045;-73
2021/01/07 06:18:47;;;;;;;65.78;26.77;;;;;;;2.04;100.00;100778.34;5005976;28;20537;-73
2021/01/07 06:21:14;;;;;;;66.72;27.00;;;;;;;2.25;100.00;100785.66;5007548;28;20042;-73
2021/01/07 06:23:44;;;;;;;66.32;26.90;;;;;;;2.12;100.00;100781.63;5006455;28;20196;-73
2021/01/07 06:26:27;;;;;;;68.13;26.77;;;;;;;2.11;100.00;100779.03;5008049;28;20033;-72
2021/01/07 06:28:59;;;;;;;65.15;27.17;;;;;;;2.08;100.00;100781.78;5002523;28;20034;-74
2021/01/07 06:31:37;;;;;;;64.00;26.27;;;;;;;2.12;100.00;100786.06;5003537;28;20034;-73
2021/01/07 06:34:04;;;;;;;75.55;29.33;;;;;;;2.01;100.00;100791.66;5005210;28;20084;-73
2021/01/07 06:36:37;;;;;;;73.45;27.75;;;;;;;2.07;100.00;100788.84;5006953;28;20550;-72
2021/01/07 06:39:03;;;;;;;72.93;27.83;;;;;;;2.04;100.00;100784.50;5005919;28;20045;-73
2021/01/07 06:41:29;;;;;;;71.95;28.30;;;;;;;2.09;100.00;100794.09;5002687;28;20133;-73
2021/01/07 06:43:55;;;;;;;73.03;29.50;;;;;;;2.04;100.00;100789.78;5009524;28;20105;-73
2021/01/07 06:46:39;;;;;;;66.07;28.15;;;;;;;2.01;100.00;100794.31;5004843;28;20034;-72
2021/01/07 06:49:22;;;;;;;69.28;27.67;;;;;;;2.01;100.00;100786.38;5007257;28;20033;-73
2021/01/07 06:51:51;;;;;;;66.87;26.37;;;;;;;2.00;100.00;100787.28;5006271;28;20085;-75
2021/01/07 06:54:17;;;;;;;69.25;27.63;;;;;;;2.02;100.00;100790.75;5006688;28;20053;-72
2021/01/07 06:56:43;;;;;;;61.55;27.08;;;;;;;2.01;100.00;100776.66;5006321;28;20038;-73
2021/01/07 06:59:12;;;;;;;62.42;26.55;;;;;;;2.10;100.00;100783.44;5006720;28;20042;-73
2021/01/07 07:01:46;;;;;;;70.68;27.60;;;;;;;2.11;100.00;100782.53;5005777;28;20030;-73
2021/01/07 07:04:22;;;;;;;56.40;24.10;;;;;;;2.00;100.00;100782.84;5007701;28;20490;-73
2021/01/07 07:06:57;;;;;;;57.97;24.25;;;;;;;1.95;100.00;100791.84;5006917;28;20640;-74
2021/01/07 07:09:25;;;;;;;54.83;24.83;;;;;;;1.84;100.00;100786.00;5006131;28;20882;-73
2021/01/07 07:11:52;;;;;;;55.38;24.30;;;;;;;1.82;100.00;100787.78;5003222;28;20042;-74
2021/01/07 07:14:19;;;;;;;54.75;23.77;;;;;;;1.82;100.00;100782.50;5006021;28;20116;-74
2021/01/07 07:16:47;;;;;;;60.40;24.88;;;;;;;1.84;100.00;100786.84;5004115;28;20410;-73
2021/01/07 07:19:26;;;;;;;62.35;25.85;;;;;;;1.74;100.00;100784.47;5009285;28;20067;-73
2021/01/07 07:21:56;;;;;;;61.97;25.33;;;;;;;1.74;100.00;100789.78;5011426;28;20116;-74
2021/01/07 07:24:30;;;;;;;54.28;24.83;;;;;;;1.68;100.00;100788.16;5009861;28;20057;-74
2021/01/07 07:27:01;;;;;;;65.72;25.88;;;;;;;1.70;100.00;100793.41;5004570;28;20044;-75
2021/01/07 07:29:31;;;;;;;67.22;25.88;;;;;;;1.70;100.00;100788.13;5011881;28;20383;-74
2021/01/07 07:31:57;;;;;;;57.75;24.77;;;;;;;1.69;100.00;100789.91;5008152;28;20044;-72
2021/01/07 07:34:41;;;;;;;57.63;23.92;;;;;;;1.69;100.00;100791.69;5009125;28;20042;-74
2021/01/07 07:37:18;;;;;;;61.63;24.65;;;;;;;1.70;100.00;100799.59;5003323;28;20041;-75
2021/01/07 07:39:46;;;;;;;66.40;25.17;;;;;;;1.69;100.00;100796.97;5008355;28;20042;-75
2021/01/07 07:42:12;;;;;;;62.88;24.80;;;;;;;1.71;100.00;100795.16;4990234;28;20026;-75
2021/01/07 07:44:37;;;;;;;58.75;24.83;;;;;;;1.70;100.00;100798.72;5015706;28;20498;-74
2021/01/07 07:47:03;;;;;;;59.22;25.42;;;;;;;1.73;100.00;100801.28;5008793;28;20632;-75
2021/01/07 07:49:28;;;;;;;68.88;29.73;;;;;;;1.72;100.00;100804.84;4991715;28;20034;-75
2021/01/07 07:51:54;;;;;;;59.78;26.83;;;;;;;1.71;100.00;100805.75;5009653;28;20049;-74
2021/01/07 07:54:19;;;;;;;67.28;27.92;;;;;;;1.69;100.00;100802.25;5011006;28;20049;-71
2021/01/07 07:56:45;;;;;;;66.10;27.70;;;;;;;1.70;100.00;100810.16;5009918;28;20076;-74
2021/01/07 07:59:11;;;;;;;60.70;25.35;;;;;;;1.75;100.00;100817.97;5007953;28;20401;-74
2021/01/07 08:01:45;;;;;;;66.38;27.80;;;;;;;1.74;100.00;100816.22;5002650;28;20068;-75
2021/01/07 08:04:15;;;;;;;63.60;26.92;;;;;;;1.72;100.00;100808.34;5008887;28;20112;-74
2021/01/07 08:06:41;;;;;;;69.22;27.10;;;;;;;1.84;100.00;100812.44;5010416;28;20038;-74
2021/01/07 08:09:10;;;;;;;63.60;28.55;;;;;;;1.84;100.00;100812.44;5010448;28;20052;-74
2021/01/07 08:11:54;;;;;;;64.70;27.15;;;;;;;1.81;100.00;100818.69;5009200;28;20037;-74
2021/01/07 08:14:22;;;;;;;65.68;26.77;;;;;;;1.82;100.00;100819.56;5009372;28;20593;-74
2021/01/07 08:16:53;;;;;;;65.47;26.20;;;;;;;1.99;100.00;100825.25;5010141;28;20072;-74
2021/01/07 08:19:21;;;;;;;61.03;27.50;;;;;;;1.95;100.00;100826.25;5008793;28;20029;-73
2021/01/07 08:21:49;;;;;;;63.05;25.85;;;;;;;1.97;100.00;100829.75;5012717;28;20580;-72
2021/01/07 08:24:16;;;;;;;60.35;25.02;;;;;;;1.93;100.00;100828.06;5009592;28;20121;-72
2021/01/07 08:26:46;;;;;;;57.30;25.20;;;;;;;1.88;100.00;100825.56;5009390;28;20040;-72
2021/01/07 08:29:13;;;;;;;57.00;25.45;;;;;;;1.85;100.00;100830.06;5007108;28;20068;-73
2021/01/07 08:31:45;;;;;;;60.15;26.77;;;;;;;1.91;100.00;100822.81;5007857;28;20414;-73
2021/01/07 08:34:12;;;;;;;60.88;25.10;;;;;;;1.94;100.00;100825.38;5010071;28;20068;-71
2021/01/07 08:36:38;;;;;;;59.10;26.30;;;;;;;1.90;100.00;100828.16;5009154;28;20033;-73
2021/01/07 08:39:04;;;;;;;59.72;24.88;;;;;;;1.87;100.00;100828.22;5008105;28;20036;-69
2021/01/07 08:41:33;;;;;;;68.35;26.90;;;;;;;1.93;100.00;100830.72;5006919;28;20034;-70
2021/01/07 08:44:01;;;;;;;67.90;26.33;;;;;;;1.93;100.00;100828.94;5008999;28;20033;-71
2021/01/07 08:46:36;;;;;;;68.53;26.58;;;;;;;1.87;100.00;100829.09;5007168;28;21828;-71
2021/01/07 08:49:07;;;;;;;61.65;26.67;;;;;;;1.94;100.00;100835.09;5009761;28;20046;-71
2021/01/07 08:51:38;;;;;;;65.22;25.38;;;;;;;1.94;100.00;100829.81;5006319;28;20049;-71
2021/01/07 08:54:10;;;;;;;67.78;27.35;;;;;;;2.02;100.00;100819.88;4989547;28;20042;-71
2021/01/07 08:56:37;;;;;;;60.33;25.25;;;;;;;2.10;100.00;100823.16;4999813;28;20037;-71
2021/01/07 08:59:19;;;;;;;66.55;24.45;;;;;;;2.17;100.00;100827.38;5009391;28;20038;-71
2021/01/07 09:01:46;;;;;;;61.05;26.08;;;;;;;2.15;100.00;100828.34;4998889;28;20038;-70
2021/01/07 09:04:25;;;;;;;63.33;25.88;;;;;;;2.14;100.00;100826.63;5008239;28;20025;-71
2021/01/07 09:07:03;;;;;;;60.38;24.75;;;;;;;2.09;100.00;100821.47;5015378;28;20034;-75
2021/01/07 09:09:57;;;;;;;63.90;26.10;;;;;;;2.12;100.00;100826.66;5009572;28;20065;-73
2021/01/07 09:12:32;;;;;;;62.25;27.35;;;;;;;2.09;100.00;100824.09;5008693;28;20046;-71
2021/01/07 09:15:05;;;;;;;60.53;25.98;;;;;;;2.23;100.00;100819.25;5009766;28;20137;-73
2021/01/07 09:17:48;;;;;;;60.22;25.58;;;;;;;2.18;100.00;100823.81;5000363;28;20955;-73
2021/01/07 09:20:14;;;;;;;67.45;27.17;;;;;;;2.21;100.00;100826.41;5006316;28;20038;-72
2021/01/07 09:22:42;;;;;;;63.05;25.65;;;;;;;2.23;100.00;100821.91;5007903;28;20379;-72
2021/01/07 09:25:09;;;;;;;60.85;26.00;;;;;;;2.22;100.00;100822.81;5009128;28;21103;-71
2021/01/07 09:27:35;;;;;;;68.68;26.95;;;;;;;2.25;100.00;100817.44;5005162;28;20075;-73
2021/01/07 09:30:01;;;;;;;67.82;27.83;;;;;;;2.23;100.00;100815.75;5009582;28;20116;-73
2021/01/07 09:32:26;;;;;;;62.53;26.52;;;;;;;2.22;100.00;100825.47;5023689;28;20034;-73
2021/01/07 09:34:52;;;;;;;64.93;25.98;;;;;;;2.36;100.00;100820.66;5008728;28;20022;-73
2021/01/07 09:37:19;;;;;;;65.38;26.27;;;;;;;2.36;100.00;100818.00;5009267;28;20044;-73
2021/01/07 09:39:46;;;;;;;54.92;23.83;;;;;;;2.52;100.00;100815.78;5009339;28;20034;-73
2021/01/07 09:42:13;;;;;;;55.15;24.48;;;;;;;2.49;100.00;100818.50;5006900;28;20042;-72
2021/01/07 09:44:38;;;;;;;54.03;24.40;;;;;;;2.39;100.00;100817.94;5005295;28;20113;-72
2021/01/07 09:47:05;;;;;;;59.15;24.90;;;;;;;2.50;100.00;100809.66;5008289;28;20163;-72
2021/01/07 09:49:31;;;;;;;55.75;25.75;;;;;;;2.36;100.00;100812.69;4999707;28;20030;-73
2021/01/07 09:51:57;;;;;;;73.28;26.65;;;;;;;2.46;100.00;100815.09;5008035;28;20041;-73
2021/01/07 09:54:23;;;;;;;59.33;25.55;;;;;;;2.44;100.00;100817.78;5008468;28;20127;-73
2021/01/07 09:56:51;;;;;;;56.50;26.77;;;;;;;2.46;100.00;100810.66;5007966;28;20394;-73
2021/01/07 09:59:16;;;;;;;63.22;26.27;;;;;;;2.49;100.00;100817.63;5005790;28;20030;-73
2021/01/07 10:01:42;;;;;;;52.65;24.85;;;;;;;2.49;100.00;100817.63;5008903;28;20421;-72
2021/01/07 10:04:07;;;;;;;55.65;25.52;;;;;;;2.59;100.00;100813.81;5008886;28;20045;-72
2021/01/07 10:06:32;;;;;;;61.83;26.70;;;;;;;2.60;100.00;100810.22;5008604;28;20037;-73
2021/01/07 10:08:58;;;;;;;56.63;25.23;;;;;;;2.62;100.00;100819.00;5023172;28;20038;-72
2021/01/07 10:11:23;;;;;;;60.55;26.75;;;;;;;2.57;100.00;100810.34;5008835;28;20089;-72
2021/01/07 10:13:48;;;;;;;59.50;27.73;;;;;;;2.64;100.00;100814.53;5006603;28;20041;-73
2021/01/07 10:16:14;;;;;;;70.30;31.42;;;;;;;2.58;100.00;100812.09;5008983;28;20033;-72
2021/01/07 10:18:41;;;;;;;68.25;30.30;;;;;;;2.57;100.00;100818.28;5008689;28;20403;-72
2021/01/07 10:21:09;;;;;;;67.40;29.77;;;;;;;2.58;100.00;100820.03;5007715;28;20038;-73
2021/01/07 10:23:35;;;;;;;69.25;29.77;;;;;;;2.61;100.00;100811.97;5007498;28;20494;-72
2021/01/07 10:26:01;;;;;;;70.72;30.63;;;;;;;2.63;100.00;100807.50;5008539;28;20121;-73
2021/01/07 10:28:28;;;;;;;77.38;32.42;;;;;;;2.60;100.00;100810.22;5008745;28;20121;-73
2021/01/07 10:30:54;;;;;;;81.03;36.08;;;;;;;2.79;100.00;100801.69;5004474;28;20464;-73
2021/01/07 10:33:20;;;;;;;75.82;32.72;;;;;;;2.75;100.00;100799.19;5003519;28;20041;-73
2021/01/07 10:35:45;;;;;;;75.32;32.05;;;;;;;2.68;100.00;100800.28;5007738;28;20517;-72
2021/01/07 10:38:11;;;;;;;70.03;32.30;;;;;;;2.74;100.00;100797.44;5005626;28;20040;-73
2021/01/07 10:40:44;;;;;;;78.00;33.13;;;;;;;2.80;100.00;100792.81;5008050;28;20073;-73
2021/01/07 10:43:11;;;;;;;73.50;30.45;;;;;;;2.89;100.00;100785.50;4989308;28;20535;-73
2021/01/07 10:45:38;;;;;;;75.78;31.98;;;;;;;2.96;100.00;100787.91;5010772;28;20041;-73
2021/01/07 10:48:09;;;;;;;74.03;30.60;;;;;;;2.99;100.00;100787.78;5006002;28;20041;-72
2021/01/07 10:50:35;;;;;;;72.50;30.35;;;;;;;3.01;100.00;100783.31;5001351;28;20041;-71
2021/01/07 10:53:24;;;;;;;69.53;29.90;;;;;;;3.01;100.00;100785.97;5007709;28;20045;-73
2021/01/07 10:55:57;;;;;;;61.70;28.83;;;;;;;3.02;100.00;100787.72;4975144;28;20042;-73
2021/01/07 10:58:54;;;;;;;63.53;27.83;;;;;;;3.00;100.00;100778.06;5007770;28;20092;-72
2021/01/07 11:01:34;;;;;;;64.10;29.08;;;;;;;3.10;100.00;100780.34;5007048;28;20038;-71
2021/01/07 11:04:22;;;;;;;71.45;29.35;;;;;;;3.05;100.00;100778.78;4991062;28;20755;-75
2021/01/07 11:07:00;;;;;;;71.50;28.80;;;;;;;3.05;100.00;100777.00;5008089;28;20037;-72
2021/01/07 11:09:32;;;;;;;65.82;28.92;;;;;;;3.06;100.00;100778.72;5011707;28;20033;-73
2021/01/07 11:12:05;;;;;;;71.35;30.83;;;;;;;3.04;100.00;100767.28;5007915;28;20915;-73